createdAt,value
2019-02-18T00:00:19.922Z,43.30
2019-02-18T00:02:48.422Z,42.50
2019-02-18T00:05:16.836Z,42.90
2019-02-18T00:07:45.274Z,43.20
2019-02-18T00:10:13.714Z,43.20
2019-02-18T00:12:42.173Z,44.10
2019-02-18T00:15:11.046Z,44.10
2019-02-18T00:17:39.465Z,44.00
2019-02-18T00:20:07.874Z,44.10
2019-02-18T00:22:36.365Z,44.30
2019-02-18T00:25:05.629Z,43.90
2019-02-18T00:27:34.061Z,43.90
2019-02-18T00:30:02.485Z,43.90
2019-02-18T00:32:30.896Z,43.70
2019-02-18T00:34:59.329Z,44.00
2019-02-18T00:37:27.726Z,44.50
2019-02-18T00:39:56.137Z,44.70
2019-02-18T00:42:24.542Z,45.00
2019-02-18T00:44:53.241Z,45.30
2019-02-18T00:47:21.658Z,45.00
2019-02-18T00:49:50.156Z,44.30
2019-02-18T00:52:18.588Z,44.20
2019-02-18T00:54:47.025Z,44.20
2019-02-18T00:57:15.430Z,44.30
2019-02-18T00:59:43.836Z,44.70
2019-02-18T01:02:12.903Z,44.90
2019-02-18T01:04:41.301Z,45.90
2019-02-18T01:07:09.755Z,45.60
2019-02-18T01:09:38.158Z,45.80
2019-02-18T01:12:07.556Z,45.60
2019-02-18T01:14:36.064Z,46.20
2019-02-18T01:17:04.548Z,46.50
2019-02-18T01:19:32.962Z,46.40
2019-02-18T01:22:01.407Z,46.30
2019-02-18T01:24:29.776Z,46.30
2019-02-18T01:26:58.223Z,46.30
2019-02-18T01:29:26.602Z,46.20
2019-02-18T01:31:55.021Z,46.00
2019-02-18T01:34:23.412Z,45.60
2019-02-18T01:36:51.847Z,46.20
2019-02-18T01:39:20.251Z,46.20
2019-02-18T01:41:48.674Z,46.50
2019-02-18T01:44:17.093Z,46.80
2019-02-18T01:46:45.572Z,46.90
2019-02-18T01:49:13.961Z,47.40
2019-02-18T01:51:42.396Z,47.40
2019-02-18T01:54:10.826Z,48.30
2019-02-18T01:56:39.261Z,47.80
2019-02-18T01:59:08.003Z,48.10
2019-02-18T02:01:36.410Z,48.80
2019-02-18T02:04:04.874Z,49.00
2019-02-18T02:06:33.305Z,49.20
2019-02-18T02:09:01.754Z,49.70
2019-02-18T02:11:30.290Z,50.10
2019-02-18T02:13:58.868Z,50.00
2019-02-18T02:16:27.288Z,49.60
2019-02-18T02:18:55.971Z,49.40
2019-02-18T02:21:24.363Z,49.60
2019-02-18T02:23:52.770Z,49.90
2019-02-18T02:26:21.513Z,50.00
2019-02-18T02:28:49.905Z,50.20
2019-02-18T02:31:18.329Z,50.60
2019-02-18T02:33:46.726Z,50.70
2019-02-18T02:36:15.139Z,51.00
2019-02-18T02:38:43.562Z,50.80
2019-02-18T02:41:11.959Z,50.90
2019-02-18T02:43:40.401Z,50.30
2019-02-18T02:46:08.797Z,50.30
2019-02-18T02:48:37.545Z,50.40
2019-02-18T02:51:05.941Z,50.70
2019-02-18T02:53:34.729Z,51.60
2019-02-18T02:56:03.129Z,51.00
2019-02-18T02:58:31.817Z,51.00
2019-02-18T03:01:00.212Z,51.40
2019-02-18T03:03:28.612Z,51.60
2019-02-18T03:05:57.037Z,51.80
2019-02-18T03:08:25.465Z,52.00
2019-02-18T03:10:53.932Z,51.80
2019-02-18T03:13:22.346Z,51.10
2019-02-18T03:15:50.728Z,51.00
2019-02-18T03:18:19.174Z,51.30
2019-02-18T03:20:47.561Z,52.40
2019-02-18T03:23:15.960Z,51.40
2019-02-18T03:25:45.802Z,52.20
2019-02-18T03:28:38.612Z,52.10
2019-02-18T03:31:10.412Z,52.20
2019-02-18T03:33:44.896Z,52.70
2019-02-18T03:36:13.313Z,53.40
2019-02-18T03:38:41.733Z,53.10
2019-02-18T03:41:10.145Z,52.80
2019-02-18T03:43:38.809Z,52.40
2019-02-18T03:46:07.478Z,52.30
2019-02-18T03:48:35.900Z,52.00
2019-02-18T03:51:04.354Z,51.70
2019-02-18T03:53:32.756Z,51.30
2019-02-18T03:56:01.153Z,51.10
2019-02-18T03:58:29.567Z,51.20
2019-02-18T04:00:58.321Z,51.30
2019-02-18T04:03:27.244Z,51.60
2019-02-18T04:05:55.646Z,51.60
2019-02-18T04:08:24.434Z,51.60
2019-02-18T04:10:53.102Z,51.60
2019-02-18T04:13:21.529Z,51.70
2019-02-18T04:15:49.961Z,51.70
2019-02-18T04:18:18.345Z,51.70
2019-02-18T04:20:46.750Z,51.80
2019-02-18T04:23:15.181Z,51.80
2019-02-18T04:25:43.606Z,52.10
2019-02-18T04:28:12.021Z,52.10
2019-02-18T04:30:40.428Z,51.90
2019-02-18T04:33:08.833Z,51.90
2019-02-18T04:35:37.240Z,52.20
2019-02-18T04:38:05.666Z,51.90
2019-02-18T04:40:34.064Z,51.80
2019-02-18T04:43:02.466Z,52.30
2019-02-18T04:45:30.889Z,53.30
2019-02-18T04:47:59.285Z,52.30
2019-02-18T04:50:27.697Z,52.40
2019-02-18T04:52:56.202Z,52.60
2019-02-18T04:55:24.976Z,52.60
2019-02-18T04:57:53.377Z,52.50
2019-02-18T05:00:21.771Z,52.80
2019-02-18T05:02:50.176Z,52.50
2019-02-18T05:05:18.616Z,52.40
2019-02-18T05:07:47.009Z,52.40
2019-02-18T05:10:15.427Z,52.50
2019-02-18T05:12:43.828Z,52.10
2019-02-18T05:15:12.229Z,52.10
2019-02-18T05:17:40.689Z,52.10
2019-02-18T05:20:09.396Z,51.60
2019-02-18T05:22:38.076Z,51.40
2019-02-18T05:25:08.113Z,51.40
2019-02-18T05:27:36.500Z,51.20
2019-02-18T05:30:07.480Z,51.60
2019-02-18T05:32:35.933Z,51.90
2019-02-18T05:35:04.968Z,52.30
2019-02-18T05:37:33.493Z,52.60
2019-02-18T05:40:01.906Z,53.40
2019-02-18T05:42:30.301Z,53.60
2019-02-18T05:44:58.716Z,53.90
2019-02-18T05:47:27.109Z,54.00
2019-02-18T05:49:55.589Z,53.70
2019-02-18T05:52:24.022Z,53.90
2019-02-18T05:54:52.746Z,53.40
2019-02-18T05:57:22.894Z,53.20
2019-02-18T05:59:51.263Z,53.40
2019-02-18T06:02:21.305Z,53.50
2019-02-18T06:04:49.729Z,53.10
2019-02-18T06:07:18.126Z,52.70
2019-02-18T06:09:46.559Z,52.50
2019-02-18T06:12:14.952Z,52.90
2019-02-18T06:14:43.353Z,52.20
2019-02-18T06:17:11.777Z,52.40
2019-02-18T06:19:40.178Z,53.00
2019-02-18T06:22:08.613Z,52.60
2019-02-18T06:24:37.013Z,52.60
2019-02-18T06:27:05.561Z,52.80
2019-02-18T06:29:33.949Z,53.30
2019-02-18T06:32:02.377Z,53.60
2019-02-18T06:34:30.868Z,53.80
2019-02-18T06:36:59.279Z,54.20
2019-02-18T06:39:27.676Z,54.50
2019-02-18T06:41:56.151Z,54.50
2019-02-18T06:44:26.196Z,54.70
2019-02-18T06:46:56.278Z,54.40
2019-02-18T06:49:24.677Z,54.30
2019-02-18T06:51:53.091Z,53.80
2019-02-18T06:54:21.551Z,53.90
2019-02-18T06:56:51.597Z,53.50
2019-02-18T06:59:21.670Z,52.90
2019-02-18T07:01:51.717Z,52.70
2019-02-18T07:04:21.766Z,52.50
2019-02-18T07:07:08.193Z,52.50
2019-02-18T07:09:38.249Z,52.20
2019-02-18T07:12:11.291Z,52.30
2019-02-18T07:14:39.718Z,52.10
2019-02-18T07:17:10.388Z,51.70
2019-02-18T07:19:38.340Z,51.10
2019-02-18T07:22:07.014Z,51.20
2019-02-18T07:24:35.412Z,50.60
2019-02-18T07:27:03.882Z,50.60
2019-02-18T07:29:34.105Z,50.50
2019-02-18T07:32:02.486Z,50.40
2019-02-18T07:34:30.918Z,50.40
2019-02-18T07:36:59.346Z,49.10
2019-02-18T07:39:27.744Z,48.40
2019-02-18T07:41:56.185Z,46.50
2019-02-18T07:44:24.583Z,46.10
2019-02-18T07:46:53.013Z,44.70
2019-02-18T07:49:21.493Z,43.10
2019-02-18T07:51:49.905Z,41.50
2019-02-18T07:54:18.330Z,40.50
2019-02-18T07:56:46.761Z,39.60
2019-02-18T07:59:15.342Z,36.90
2019-02-18T08:01:43.789Z,35.80
2019-02-18T08:04:12.204Z,34.80
2019-02-18T08:06:40.642Z,33.40
2019-02-18T08:09:09.092Z,31.90
2019-02-18T08:11:37.490Z,30.20
2019-02-18T08:14:06.281Z,30.50
2019-02-18T08:16:34.694Z,29.70
2019-02-18T08:19:03.154Z,28.80
2019-02-18T08:21:31.561Z,27.80
2019-02-18T08:24:00.455Z,28.50
2019-02-18T08:26:29.024Z,27.80
2019-02-18T08:28:57.449Z,27.40
2019-02-18T08:31:25.921Z,27.40
2019-02-18T08:33:54.414Z,26.20
2019-02-18T08:36:22.814Z,26.60
2019-02-18T08:38:51.317Z,25.40
2019-02-18T08:41:19.873Z,24.90
2019-02-18T08:43:48.302Z,24.20
2019-02-18T08:46:16.738Z,23.40
2019-02-18T08:48:45.434Z,22.70
2019-02-18T08:51:13.887Z,22.90
2019-02-18T08:53:45.087Z,23.20
2019-02-18T08:56:13.497Z,22.70
2019-02-18T08:58:41.940Z,22.80
2019-02-18T09:01:10.353Z,23.40
2019-02-18T09:03:38.782Z,22.70
2019-02-18T09:06:07.469Z,22.60
2019-02-18T09:08:35.922Z,22.50
2019-02-18T09:11:04.413Z,23.00
2019-02-18T09:13:32.895Z,23.00
2019-02-18T09:16:01.318Z,23.30
2019-02-18T09:18:29.729Z,23.10
2019-02-18T09:20:58.177Z,24.20
2019-02-18T09:23:28.232Z,24.20
2019-02-18T09:25:56.714Z,24.60
2019-02-18T09:28:25.233Z,24.20
2019-02-18T09:30:54.252Z,24.10
2019-02-18T09:33:22.924Z,23.70
2019-02-18T09:35:51.346Z,23.10
2019-02-18T09:38:25.030Z,22.80
2019-02-18T09:40:51.596Z,22.20
2019-02-18T09:43:20.295Z,22.30
2019-02-18T09:45:48.781Z,22.30
2019-02-18T09:48:17.184Z,21.00
2019-02-18T09:50:45.614Z,21.40
2019-02-18T09:53:14.034Z,20.60
2019-02-18T09:55:42.449Z,20.50
2019-02-18T09:58:11.469Z,20.70
2019-02-18T10:00:39.900Z,20.20
2019-02-18T10:03:08.302Z,19.80
2019-02-18T10:05:36.730Z,19.50
2019-02-18T10:08:05.258Z,19.60
2019-02-18T10:10:33.706Z,18.80
2019-02-18T10:13:02.461Z,19.00
2019-02-18T10:15:30.869Z,18.30
2019-02-18T10:17:59.317Z,18.00
2019-02-18T10:20:27.765Z,17.70
2019-02-18T10:22:56.237Z,17.90
2019-02-18T10:25:24.720Z,17.50
2019-02-18T10:27:53.125Z,17.50
2019-02-18T10:30:21.586Z,18.10
2019-02-18T10:32:50.022Z,16.80
2019-02-18T10:35:18.528Z,16.80
2019-02-18T10:37:54.918Z,16.90
2019-02-18T10:40:17.130Z,17.10
2019-02-18T10:42:45.615Z,16.30
2019-02-18T10:45:14.127Z,16.40
2019-02-18T10:47:42.588Z,16.10
2019-02-18T10:50:12.355Z,16.10
2019-02-18T10:52:40.762Z,15.80
2019-02-18T10:55:10.779Z,15.80
2019-02-18T10:57:39.540Z,15.10
2019-02-18T11:00:13.412Z,14.70
2019-02-18T11:02:41.893Z,13.80
2019-02-18T11:05:10.561Z,13.70
2019-02-18T11:07:38.968Z,13.80
2019-02-18T11:10:15.345Z,13.90
2019-02-18T11:12:43.762Z,14.20
2019-02-18T11:15:15.789Z,14.50
2019-02-18T11:17:44.625Z,14.50
2019-02-18T11:20:14.059Z,14.60
2019-02-18T11:22:42.466Z,14.70
2019-02-18T11:25:12.117Z,15.10
2019-02-18T11:27:40.631Z,15.30
2019-02-18T11:30:12.231Z,15.50
2019-02-18T11:32:40.675Z,16.00
2019-02-18T11:35:09.174Z,16.10
2019-02-18T11:37:37.622Z,17.00
2019-02-18T11:40:14.471Z,17.20
2019-02-18T11:42:42.925Z,18.20
2019-02-18T11:45:15.446Z,18.30
2019-02-18T11:47:43.856Z,19.10
2019-02-18T11:50:14.154Z,19.10
2019-02-18T11:52:43.025Z,19.20
2019-02-18T11:55:15.004Z,19.10
2019-02-18T11:57:43.921Z,18.80
2019-02-18T12:00:16.773Z,18.90
2019-02-18T12:02:45.265Z,18.60
2019-02-18T12:05:14.043Z,18.50
2019-02-18T12:07:42.555Z,18.30
2019-02-18T12:10:12.544Z,18.40
2019-02-18T12:12:41.395Z,18.20
2019-02-18T12:15:16.441Z,16.60
2019-02-18T12:17:44.869Z,16.50
2019-02-18T12:20:14.377Z,16.60
2019-02-18T12:22:42.814Z,16.70
2019-02-18T12:25:12.747Z,17.00
2019-02-18T12:27:41.790Z,16.80
2019-02-18T12:30:15.903Z,16.80
2019-02-18T12:32:44.390Z,16.70
2019-02-18T12:35:13.434Z,16.20
2019-02-18T12:37:41.880Z,15.90
2019-02-18T12:40:14.582Z,16.30
2019-02-18T12:42:42.990Z,16.40
2019-02-18T12:45:14.127Z,16.10
2019-02-18T12:47:42.827Z,16.50
2019-02-18T12:50:12.063Z,17.30
2019-02-18T12:52:40.613Z,16.70
2019-02-18T12:55:10.685Z,17.20
2019-02-18T12:57:39.700Z,17.10
2019-02-18T13:00:15.188Z,17.30
2019-02-18T13:02:45.026Z,17.40
2019-02-18T13:05:14.392Z,17.10
2019-02-18T13:07:42.912Z,17.20
2019-02-18T13:10:12.901Z,17.20
2019-02-18T13:12:41.707Z,17.30
2019-02-18T13:15:12.957Z,17.50
2019-02-18T13:17:42.819Z,17.40
2019-02-18T13:20:11.486Z,17.20
2019-02-18T13:22:40.286Z,17.30
2019-02-18T13:25:09.906Z,17.20
2019-02-18T13:27:38.413Z,17.40
2019-02-18T13:30:19.134Z,17.80
2019-02-18T13:32:47.573Z,17.90
2019-02-18T13:35:16.132Z,17.90
2019-02-18T13:37:44.609Z,17.50
2019-02-18T13:40:15.908Z,17.90
2019-02-18T13:42:44.744Z,17.70
2019-02-18T13:45:13.214Z,17.50
2019-02-18T13:47:41.700Z,17.00
2019-02-18T13:50:12.243Z,17.10
2019-02-18T13:52:40.821Z,17.00
2019-02-18T13:55:12.070Z,16.70
2019-02-18T13:57:47.398Z,16.80
2019-02-18T14:00:20.959Z,16.90
2019-02-18T14:02:50.568Z,16.80
2019-02-18T14:05:20.794Z,16.80
2019-02-18T14:07:49.276Z,16.30
2019-02-18T14:10:18.434Z,16.40
2019-02-18T14:12:46.857Z,16.20
2019-02-18T14:15:15.784Z,16.20
2019-02-18T14:17:44.373Z,16.10
2019-02-18T14:20:14.263Z,16.60
2019-02-18T14:22:43.048Z,16.90
2019-02-18T14:25:12.001Z,16.90
2019-02-18T14:27:40.552Z,17.40
2019-02-18T14:30:14.772Z,17.00
2019-02-18T14:32:43.305Z,17.40
2019-02-18T14:35:11.906Z,17.70
2019-02-18T14:37:40.400Z,17.70
2019-02-18T14:40:11.312Z,18.50
2019-02-18T14:42:39.822Z,18.50
2019-02-18T14:45:09.615Z,18.70
2019-02-18T14:47:38.165Z,18.80
2019-02-18T14:50:09.368Z,19.00
2019-02-18T14:52:37.995Z,18.30
2019-02-18T14:55:08.437Z,17.60
2019-02-18T14:57:36.899Z,17.10
2019-02-18T15:00:12.852Z,17.10
2019-02-18T15:02:41.339Z,17.00
2019-02-18T15:05:09.761Z,17.60
2019-02-18T15:07:38.179Z,17.70
2019-02-18T15:10:08.336Z,16.70
2019-02-18T15:12:36.774Z,16.90
2019-02-18T15:15:05.806Z,17.10
2019-02-18T15:17:34.209Z,17.40
2019-02-18T15:20:02.617Z,17.90
2019-02-18T15:22:31.015Z,17.70
2019-02-18T15:24:59.669Z,18.10
2019-02-18T15:27:28.125Z,18.20
2019-02-18T15:29:56.602Z,18.50
2019-02-18T15:32:24.993Z,18.40
2019-02-18T15:34:53.536Z,18.60
2019-02-18T15:37:22.117Z,18.90
2019-02-18T15:39:50.901Z,18.90
2019-02-18T15:42:19.314Z,18.80
2019-02-18T15:44:47.814Z,19.00
2019-02-18T15:47:22.061Z,19.00
2019-02-18T15:49:50.537Z,19.30
2019-02-18T15:52:19.017Z,19.40
2019-02-18T15:54:47.954Z,19.40
2019-02-18T15:57:16.462Z,19.30
2019-02-18T15:59:44.925Z,19.30
2019-02-18T16:02:13.408Z,19.20
2019-02-18T16:04:41.859Z,19.50
2019-02-18T16:07:10.346Z,19.40
2019-02-18T16:09:39.784Z,19.40
2019-02-18T16:12:08.191Z,19.60
2019-02-18T16:14:36.639Z,19.80
2019-02-18T16:17:05.077Z,19.90
2019-02-18T16:19:33.566Z,19.90
2019-02-18T16:22:02.369Z,20.30
2019-02-18T16:24:30.856Z,20.60
2019-02-18T16:26:59.654Z,20.80
2019-02-18T16:29:28.127Z,21.70
2019-02-18T16:31:56.613Z,21.40
2019-02-18T16:34:25.197Z,21.40
2019-02-18T16:36:53.655Z,21.40
2019-02-18T16:39:22.148Z,21.70
2019-02-18T16:41:50.641Z,21.50
2019-02-18T16:44:19.181Z,21.60
2019-02-18T16:46:48.050Z,21.70
2019-02-18T16:49:16.528Z,21.60
2019-02-18T16:51:44.998Z,21.60
2019-02-18T16:54:13.550Z,21.60
2019-02-18T16:56:42.502Z,21.60
2019-02-18T16:59:10.893Z,21.70
2019-02-18T17:01:39.356Z,21.90
2019-02-18T17:04:07.916Z,22.10
2019-02-18T17:06:36.415Z,22.10
2019-02-18T17:09:07.986Z,22.20
2019-02-18T17:11:36.806Z,22.40
2019-02-18T17:14:05.630Z,22.40
2019-02-18T17:16:34.351Z,22.50
2019-02-18T17:19:02.852Z,22.90
2019-02-18T17:21:31.343Z,22.90
2019-02-18T17:23:59.757Z,23.00
2019-02-18T17:26:28.260Z,23.10
2019-02-18T17:28:57.069Z,23.30
2019-02-18T17:31:25.479Z,23.30
2019-02-18T17:33:53.890Z,23.70
2019-02-18T17:36:22.322Z,24.50
2019-02-18T17:38:50.783Z,24.50
2019-02-18T17:41:19.252Z,24.80
2019-02-18T17:43:47.836Z,25.00
2019-02-18T17:46:16.434Z,25.10
2019-02-18T17:48:44.902Z,25.40
2019-02-18T17:51:13.456Z,25.50
2019-02-18T17:53:41.881Z,25.80
2019-02-18T17:56:10.315Z,26.60
2019-02-18T17:58:39.243Z,26.70
2019-02-18T18:01:08.044Z,26.60
2019-02-18T18:03:36.467Z,27.00
2019-02-18T18:06:04.954Z,27.10
2019-02-18T18:08:33.381Z,27.90
2019-02-18T18:11:01.980Z,28.10
2019-02-18T18:13:30.492Z,28.30
2019-02-18T18:15:58.925Z,28.00
2019-02-18T18:18:27.619Z,28.70
2019-02-18T18:20:56.159Z,28.80
2019-02-18T18:23:24.658Z,29.10
2019-02-18T18:25:53.198Z,29.10
2019-02-18T18:28:21.969Z,29.40
2019-02-18T18:30:50.422Z,29.50
2019-02-18T18:33:19.098Z,29.60
2019-02-18T18:35:47.527Z,30.00
2019-02-18T18:38:15.953Z,30.30
2019-02-18T18:40:44.494Z,30.60
2019-02-18T18:43:15.881Z,31.10
2019-02-18T18:45:44.305Z,31.60
2019-02-18T18:48:13.018Z,32.80
2019-02-18T18:50:41.437Z,32.50
2019-02-18T18:53:09.901Z,33.00
2019-02-18T18:55:38.643Z,33.30
2019-02-18T18:58:07.467Z,33.30
2019-02-18T19:00:35.961Z,33.60
2019-02-18T19:03:04.880Z,33.60
2019-02-18T19:05:33.300Z,33.80
2019-02-18T19:08:01.721Z,34.40
2019-02-18T19:10:30.130Z,34.20
2019-02-18T19:12:58.556Z,34.40
2019-02-18T19:15:26.958Z,34.60
2019-02-18T19:17:55.991Z,35.00
2019-02-18T19:20:24.408Z,35.60
2019-02-18T19:22:52.872Z,36.30
2019-02-18T19:25:21.337Z,36.50
2019-02-18T19:27:49.881Z,36.70
2019-02-18T19:30:24.596Z,37.20
2019-02-18T19:32:53.577Z,37.60
2019-02-18T19:35:21.980Z,37.80
2019-02-18T19:37:50.717Z,38.00
2019-02-18T19:40:19.141Z,38.00
2019-02-18T19:42:47.864Z,38.30
2019-02-18T19:45:21.377Z,38.70
2019-02-18T19:47:51.494Z,39.10
2019-02-18T19:50:20.931Z,39.30
2019-02-18T19:52:49.621Z,39.30
2019-02-18T19:55:18.099Z,39.60
2019-02-18T19:57:46.497Z,39.90
2019-02-18T20:00:20.296Z,40.80
2019-02-18T20:02:49.088Z,41.10
2019-02-18T20:05:17.570Z,41.50
2019-02-18T20:07:45.992Z,42.30
2019-02-18T20:10:15.658Z,42.40
2019-02-18T20:12:44.753Z,42.30
2019-02-18T20:15:14.812Z,42.80
2019-02-18T20:17:43.292Z,43.10
2019-02-18T20:20:16.503Z,42.70
2019-02-18T20:22:45.034Z,42.90
2019-02-18T20:25:13.750Z,43.00
2019-02-18T20:27:42.184Z,42.90
2019-02-18T20:30:13.255Z,43.20
2019-02-18T20:32:41.697Z,43.60
2019-02-18T20:35:11.117Z,43.50
2019-02-18T20:37:39.514Z,43.60
2019-02-18T20:40:09.384Z,43.90
2019-02-18T20:42:38.162Z,43.80
2019-02-18T20:45:09.624Z,44.10
2019-02-18T20:47:38.021Z,44.10
2019-02-18T20:50:11.801Z,44.40
2019-02-18T20:52:40.289Z,45.10
2019-02-18T20:55:11.045Z,45.40
2019-02-18T20:57:39.468Z,45.50
2019-02-18T21:00:12.665Z,46.60
2019-02-18T21:02:41.105Z,46.00
2019-02-18T21:05:09.659Z,46.30
2019-02-18T21:07:38.045Z,46.40
2019-02-18T21:10:09.760Z,46.80
2019-02-18T21:12:38.159Z,47.10
2019-02-18T21:15:07.755Z,47.00
2019-02-18T21:17:36.226Z,47.30
2019-02-18T21:20:08.614Z,47.50
2019-02-18T21:22:37.087Z,47.20
2019-02-18T21:25:07.613Z,47.40
2019-02-18T21:27:36.119Z,47.90
2019-02-18T21:30:07.109Z,48.10
2019-02-18T21:32:36.005Z,48.40
2019-02-18T21:35:05.422Z,49.20
2019-02-18T21:37:33.817Z,49.90
2019-02-18T21:40:02.991Z,50.90
2019-02-18T21:42:31.398Z,51.30
2019-02-18T21:44:59.849Z,51.60
2019-02-18T21:47:28.533Z,51.30
2019-02-18T21:49:56.946Z,50.50
2019-02-18T21:52:25.377Z,51.20
2019-02-18T21:54:54.167Z,52.00
2019-02-18T21:57:22.650Z,51.90
2019-02-18T21:59:51.078Z,52.00
2019-02-18T22:02:19.551Z,51.50
2019-02-18T22:04:47.987Z,51.30
2019-02-18T22:07:16.443Z,50.80
2019-02-18T22:09:44.949Z,50.30
2019-02-18T22:12:13.832Z,50.10
2019-02-18T22:14:42.401Z,50.20
2019-02-18T22:17:10.878Z,50.40
2019-02-18T22:19:39.309Z,50.70
2019-02-18T22:22:07.721Z,51.10
2019-02-18T22:24:36.167Z,51.50
2019-02-18T22:27:04.607Z,51.80
2019-02-18T22:29:33.270Z,51.70
2019-02-18T22:32:01.721Z,51.80
2019-02-18T22:34:30.125Z,51.50
2019-02-18T22:36:58.533Z,51.20
2019-02-18T22:39:26.928Z,50.80
2019-02-18T22:41:55.353Z,50.80
2019-02-18T22:44:23.752Z,50.60
2019-02-18T22:46:52.166Z,50.70
2019-02-18T22:49:20.577Z,50.50
2019-02-18T22:51:49.008Z,50.30
2019-02-18T22:54:17.443Z,50.60
2019-02-18T22:56:46.255Z,50.60
2019-02-18T22:59:14.780Z,50.60
2019-02-18T23:01:43.594Z,51.00
2019-02-18T23:04:12.029Z,51.00
2019-02-18T23:06:40.510Z,51.00
2019-02-18T23:09:10.613Z,50.80
2019-02-18T23:11:39.055Z,50.90
2019-02-18T23:14:07.550Z,50.70
2019-02-18T23:16:35.968Z,50.40
2019-02-18T23:19:04.746Z,50.40
2019-02-18T23:21:33.153Z,50.40
2019-02-18T23:24:01.567Z,50.60
2019-02-18T23:26:30.292Z,50.40
2019-02-18T23:28:58.686Z,50.20
2019-02-18T23:31:27.106Z,50.80
2019-02-18T23:33:55.534Z,50.80
2019-02-18T23:36:25.026Z,51.30
2019-02-18T23:38:53.425Z,51.70
2019-02-18T23:41:21.832Z,51.40
2019-02-18T23:43:50.237Z,51.30
2019-02-18T23:46:18.629Z,51.20
2019-02-18T23:48:47.112Z,51.60
2019-02-18T23:51:15.833Z,51.70
2019-02-18T23:53:44.633Z,51.50
2019-02-18T23:56:13.049Z,51.90
2019-02-18T23:58:41.480Z,51.90
